Flight Track Log - Related Links

Times and Time Zones

All times are in EST time to prevent confusion due to time zone crossing. See the N75AW flight status page for this flight to view local times or setup timezone preferences in your user account.

Time Position Orientation Groundspeed Altitude Reporting Facility
EST Latitude Longitude Course Direction KTS MPH feet Rate Location/Type
Sun 07:30:30 PM 34.1769 -82.1908 178° South 172 198 4,200  Level Atlanta Center
Sun 07:31:30 PM 34.1308 -82.1892 178° South 172 198 5,900 1,750 Climbing Atlanta Center
Sun 07:32:30 PM 34.0828 -82.1803 171° South 172 198 7,700 2,000 Climbing Atlanta Center
Sun 07:33:30 PM 34.0308 -82.1839 183° South 177 204 9,900 1,950 Climbing Atlanta Center
Sun 07:34:30 PM 33.9828 -82.1875 184° South 177 204 11,600 1,750 Climbing Atlanta Center
Sun 07:35:30 PM 33.9347 -82.1886 181° South 177 204 13,400 1,700 Climbing Atlanta Center
Sun 07:36:30 PM 33.8867 -82.1869 178° South 177 204 15,000 1,600 Climbing Atlanta Center
Sun 07:37:30 PM 33.8367 -82.1806 174° South 177 204 16,600 1,550 Climbing Atlanta Center
Sun 07:38:30 PM 33.7883 -82.1767 176° South 177 204 18,100 1,450 Climbing Atlanta Center
Sun 07:39:30 PM 33.7403 -82.1703 174° South 177 204 19,500 1,300 Climbing Atlanta Center
Sun 07:40:30 PM 33.6944 -82.1661 176° South 177 204 20,700 1,150 Climbing Atlanta Center
Sun 07:41:30 PM 33.6464 -82.1672 181° South 177 204 21,800 1,100 Climbing Atlanta Center
Sun 07:42:30 PM 33.6006 -82.1658 179° South 177 204 22,900 1,050 Climbing Atlanta Center
Sun 07:43:30 PM 33.5544 -82.1667 181° South 177 204 23,900 600 Climbing Atlanta Center
Sun 07:44:30 PM 33.5044 -82.1653 179° South 177 204 24,100 100 Climbing Atlanta Center
Sun 07:45:30 PM 33.4397 -82.1667 181° South 201 231 24,100  Level Atlanta Center
Sun 07:46:30 PM 33.3689 -82.1658 179° South 234 269 24,100  Level Atlanta Center
Sun 07:47:30 PM 33.2936 -82.1650 179° South 257 296 24,100  Level Atlanta Center
Sun 07:48:30 PM 33.2164 -82.1642 179° South 270 311 24,100  Level Atlanta Center
Sun 07:49:30 PM 33.1369 -82.1633 179° South 282 325 24,100  Level Atlanta Center
Sun 07:50:30 PM 33.0597 -82.1625 179° South 287 330 24,100  Level Atlanta Center
Sun 07:51:30 PM 32.9825 -82.1617 179° South 287 330 24,100  Level Atlanta Center
Sun 07:52:30 PM 32.9053 -82.1608 179° South 287 330 24,100  Level Atlanta Center
Sun 07:53:30 PM 32.8261 -82.1600 179° South 287 330 24,100  Level Atlanta Center
Sun 07:54:30 PM 32.7508 -82.1594 180° South 287 330 24,100  Level Atlanta Center
Sun 07:56:21 PM 32.6175 -82.1575 179° South 269 310 24,100  Level Jacksonville Center
Sun 07:57:21 PM 32.5403 -82.1558 179° South 269 310 24,100  Level Jacksonville Center
Sun 07:58:21 PM 32.4631 -82.1564 180° South 269 310 24,100  Level Jacksonville Center
Sun 07:59:21 PM 32.3878 -82.1569 180° South 274 315 24,100  Level Jacksonville Center
Sun 08:00:21 PM 32.3022 -82.1578 180° South 274 315 24,100  Level Jacksonville Center
Sun 08:01:21 PM 32.2333 -82.1558 179° South 279 321 24,100  Level Jacksonville Center
Sun 08:02:21 PM 32.1478 -82.1539 179° South 279 321 24,100  Level Jacksonville Center
Sun 08:03:21 PM 32.0725 -82.1547 181° South 279 321 24,100  Level Jacksonville Center
Sun 08:04:21 PM 32.0036 -82.1528 179° South 279 321 24,100  Level Jacksonville Center
Sun 08:05:21 PM 31.9200 -82.1533 180° South 274 315 24,100  Level Jacksonville Center
Sun 08:06:21 PM 31.8492 -82.1514 179° South 274 315 24,100  Level Jacksonville Center
Sun 08:07:21 PM 31.7636 -82.1497 179° South 274 315 24,100  Level Jacksonville Center
Sun 08:08:21 PM 31.6883 -82.1478 179° South 274 315 24,100  Level Jacksonville Center
Sun 08:09:21 PM 31.6089 -82.1508 182° South 274 315 24,100  Level Jacksonville Center
Sun 08:10:21 PM 31.5339 -82.1492 179° South 274 315 24,100  Level Jacksonville Center
Sun 08:11:21 PM 31.4567 -82.1472 179° South 274 315 24,100  Level Jacksonville Center
Sun 08:12:21 PM 31.3792 -82.1481 181° South 274 315 24,100  Level Jacksonville Center
Sun 08:13:21 PM 31.3042 -82.1461 179° South 274 315 24,100  Level Jacksonville Center
Sun 08:14:21 PM 31.2269 -82.1442 179° South 274 315 24,100  Level Jacksonville Center
Sun 08:15:21 PM 31.1475 -82.1425 179° South 274 315 24,100  Level Jacksonville Center
Sun 08:16:21 PM 31.0703 -82.1456 182° South 274 315 24,100  Level Jacksonville Center
Sun 08:17:21 PM 30.9950 -82.1414 177° South 274 315 24,100  Level Jacksonville Center
Sun 08:18:21 PM 30.9158 -82.1419 180° South 274 315 24,100  Level Jacksonville Center
Sun 08:19:21 PM 30.8386 -82.1400 179° South 274 315 24,100  Level Jacksonville Center
Sun 08:20:21 PM 30.7633 -82.1406 180° South 274 315 24,100  Level Jacksonville Center
Sun 08:21:21 PM 30.6839 -82.1389 179° South 274 315 24,100  Level Jacksonville Center
Sun 08:22:21 PM 30.6067 -82.1372 179° South 274 315 24,100  Level Jacksonville Center
Sun 08:23:21 PM 30.5400 -82.1353 179° South 274 315 24,100  Level Jacksonville Center
Sun 08:24:21 PM 30.4606 -82.1286 176° South 274 315 24,100  Level Jacksonville Center
Sun 08:25:21 PM 30.3769 -82.1294 180° South 274 315 24,100  Level Jacksonville Center
Sun 08:26:21 PM 30.2978 -82.1300 180° South 274 315 24,100  Level Jacksonville Center
Sun 08:27:21 PM 30.2203 -82.1306 180° South 274 315 24,100 50 Level Jacksonville Center
Sun 08:28:21 PM 30.1411 -82.1217 174° South 274 315 24,200  Climbing Jacksonville Center
Sun 08:29:21 PM 30.0617 -82.1031 169° South 280 322 24,100 -50 Descending Jacksonville Center
Sun 08:30:21 PM 29.9822 -82.0942 174° South 285 328 24,100  Level Jacksonville Center
Sun 08:31:21 PM 29.9089 -82.0778 169° South 293 337 24,100  Level Jacksonville Center
Sun 08:32:21 PM 29.8317 -82.0617 170° South 293 337 24,100  Level Jacksonville Center
Sun 08:33:21 PM 29.7458 -82.0408 168° South 293 337 24,100  Level Jacksonville Center
Sun 08:34:21 PM 29.6750 -82.0319 174° South 293 337 24,100  Level Jacksonville Center
Sun 08:35:21 PM 29.5975 -82.0161 170° South 293 337 24,100  Level Jacksonville Center
Sun 08:36:21 PM 29.5181 -82.0025 172° South 293 337 24,100  Level Jacksonville Center
Sun 08:37:21 PM 29.4386 -81.9839 168° South 293 337 24,100  Level Jacksonville Center
Sun 08:38:21 PM 29.3614 -81.9681 170° South 293 337 24,100  Level Jacksonville Center
Sun 08:39:21 PM 29.2839 -81.9544 171° South 293 337 24,100 -50 Level Jacksonville Center
Sun 08:40:21 PM 29.1961 -81.9317 167° South 293 337 24,000 -400 Descending Jacksonville Center
Sun 08:41:21 PM 29.1167 -81.9156 170° South 293 337 23,300 -450 Descending Jacksonville Center
Sun 08:42:21 PM 29.0331 -81.9000 171° South 298 343 23,100 -100 Descending Jacksonville Center
Sun 08:43:21 PM 28.9558 -81.8842 170° South 291 335 23,100  Level Jacksonville Center
Sun 08:44:21 PM 28.8764 -81.8683 170° South 291 335 23,100  Level Jacksonville Center
Sun 08:46:50 PM 28.6942 -81.8347 171° South 289 333 23,100  Level Miami Center
Sun 08:47:50 PM 28.6156 -81.8194 170° South 289 333 23,100  Level Miami Center
Sun 08:48:50 PM 28.5389 -81.8042 170° South 289 333 23,100  Level Miami Center
Sun 08:49:50 PM 28.4603 -81.7842 167° South 294 338 23,100  Level Miami Center
Sun 08:50:50 PM 28.3836 -81.7692 170° South 294 338 23,100  Level Miami Center
Sun 08:51:50 PM 28.3028 -81.7514 169° South 294 338 23,100  Level Miami Center
Sun 08:52:50 PM 28.2242 -81.7364 170° South 294 338 23,100  Level Miami Center
Sun 08:53:50 PM 28.1475 -81.7189 169° South 294 338 23,100  Level Miami Center
Sun 08:54:50 PM 28.0708 -81.7014 169° South 294 338 23,100  Level Miami Center
Sun 08:55:50 PM 27.9919 -81.6864 170° South 294 338 23,100 -450 Level Miami Center
Sun 08:56:50 PM 27.9133 -81.6711 170° South 294 338 22,200 -950 Descending Miami Center
Sun 08:57:50 PM 27.8303 -81.6536 169° South 294 338 21,200 -900 Descending Miami Center
Sun 08:58:50 PM 27.7414 -81.6333 169° South 294 338 20,400 -950 Descending Miami Center
Sun 08:59:50 PM 27.6689 -81.6164 169° South 294 338 19,300 -1,250 Descending Miami Center
Sun 09:00:00 PM 27.6593 -81.6145 169° South  Level FlightAware Approximate
Sun 09:00:50 PM 27.5756 -81.5983 170° South 294 338 17,900  Level Miami Center
Sun 09:01:50 PM 27.4925 -81.5833 171° South 299 344 23,000 2,550 Climbing Miami Center
Sun 09:02:50 PM 27.4097 -81.5658 169° South 299 344 23,000  Level Miami Center
Sun 09:03:50 PM 27.3308 -81.5486 169° South 299 344 23,000  Level Miami Center
Sun 09:05:00 PM 27.2518 -81.5174 161° South  Level FlightAware Approximate
Sun 09:05:50 PM 27.1753 -81.5167 161° South 292 336 23,000  Level Miami Center
Sun 09:06:50 PM 27.1006 -81.5019 170° South 287 330 23,000  Level Miami Center
Sun 09:07:50 PM 27.0303 -81.4853 168° South 275 316 23,000  Level Miami Center
Sun 09:08:50 PM 26.9600 -81.4614 163° South 270 311 23,000  Level Miami Center
Sun 09:09:50 PM 26.8950 -81.4706 187° South 253 291 23,000  Level Miami Center
Sun 09:10:50 PM 26.8253 -81.4981 199° South 248 285 23,000  Level Miami Center
Sun 09:11:50 PM 26.7619 -81.5233 200° South 253 291 23,000  Level Miami Center
Sun 09:12:50 PM 26.6961 -81.5511 201° Southwest 253 291 23,000  Level Miami Center
Sun 09:13:50 PM 26.6306 -81.5786 201° Southwest 253 291 23,000  Level Miami Center
Sun 09:14:50 PM 26.5669 -81.6086 203° Southwest 253 291 23,000  Level Miami Center
Sun 09:15:50 PM 26.5033 -81.6361 201° Southwest 253 291 23,000  Level Miami Center
Sun 09:16:50 PM 26.4378 -81.6636 201° Southwest 261 300 23,000  Level Miami Center
Sun 09:17:50 PM 26.3700 -81.6911 200° South 254 292 23,000  Level Miami Center
Sun 09:18:50 PM 26.3044 -81.7183 200° South 254 292 23,000  Level Miami Center
Sun 09:19:50 PM 26.2492 -81.7508 208° Southwest 254 292 23,000  Level Miami Center
Sun 09:20:50 PM 26.1956 -81.7903 213° Southwest 241 277 23,000  Level Miami Center
Sun 09:21:50 PM 26.1567 -81.8258 219° Southwest 199 229 23,000  Level Miami Center
Sun 09:22:50 PM 26.1231 -81.8358 195° South 143 165 23,000  Level Miami Center
Sun 09:23:50 PM 26.1217 -81.8150 94° East 67 77 23,000  Level Miami Center
Sun 09:24:50 PM 26.1369 -81.7947 50° Northeast 60 69 23,000  Level Miami Center
Sun 09:25:50 PM 26.1397 -81.7764 80° East 60 69 23,000  Level Miami Center
Sun 09:27:00 PM 26.1500 -81.7667 42° Northeast  Level FlightAware Approximate

Login

Don't have an account? Register now (free) for customized features, flight alerts, and more!